createdAt,value
2023-04-16T00:00:13.899Z,86.6166
2023-04-16T00:01:14.507Z,86.6143
2023-04-16T00:02:15.161Z,86.6078
2023-04-16T00:03:15.956Z,86.5991
2023-04-16T00:04:17.101Z,86.5941
2023-04-16T00:05:18.113Z,86.5864
2023-04-16T00:06:18.687Z,86.5744
2023-04-16T00:07:19.257Z,86.5605
2023-04-16T00:08:19.885Z,86.5373
2023-04-16T00:09:20.465Z,86.5140
2023-04-16T00:10:20.962Z,86.4919
2023-04-16T00:11:21.573Z,86.4683
2023-04-16T00:12:22.165Z,86.4518
2023-04-16T00:13:22.753Z,86.4428
2023-04-16T00:14:23.278Z,86.4326
2023-04-16T00:15:23.807Z,86.4212
2023-04-16T00:16:24.536Z,86.3989
2023-04-16T00:17:25.131Z,86.3920
2023-04-16T00:18:25.703Z,86.3890
2023-04-16T00:19:26.231Z,86.3909
2023-04-16T00:20:26.835Z,86.3988
2023-04-16T00:21:27.416Z,86.3923
2023-04-16T00:22:28.016Z,86.3966
2023-04-16T00:23:28.580Z,86.4073
2023-04-16T00:24:29.252Z,86.4060
2023-04-16T00:25:29.869Z,86.4001
2023-04-16T00:26:30.469Z,86.4039
2023-04-16T00:27:31.060Z,86.4151
2023-04-16T00:28:31.632Z,86.4187
2023-04-16T00:29:32.229Z,86.4217
2023-04-16T00:30:32.750Z,86.4229
2023-04-16T00:31:33.232Z,86.4317
2023-04-16T00:32:33.833Z,86.4253
2023-04-16T00:33:34.392Z,86.4234
2023-04-16T00:34:34.916Z,86.4344
2023-04-16T00:35:35.470Z,86.4313
2023-04-16T00:36:35.965Z,86.4385
2023-04-16T00:37:36.573Z,86.4538
2023-04-16T00:38:37.077Z,86.4739
2023-04-16T00:39:37.673Z,86.4925
2023-04-16T00:40:38.275Z,86.5025
2023-04-16T00:41:38.782Z,86.5099
2023-04-16T00:42:39.424Z,86.5195
2023-04-16T00:43:40.232Z,86.5456
2023-04-16T00:44:40.805Z,86.5535
2023-04-16T00:45:41.350Z,86.5615
2023-04-16T00:46:41.981Z,86.5729
2023-04-16T00:47:42.668Z,86.5919
2023-04-16T00:48:43.266Z,86.6162
2023-04-16T00:49:43.827Z,86.6468
2023-04-16T00:50:44.392Z,86.6691
2023-04-16T00:51:44.886Z,86.6885
2023-04-16T00:52:45.508Z,86.7078
2023-04-16T00:53:46.060Z,86.7215
2023-04-16T00:54:46.604Z,86.7473
2023-04-16T00:55:47.167Z,86.7726
2023-04-16T00:56:47.804Z,86.8045
2023-04-16T00:57:48.345Z,86.8331
2023-04-16T00:58:48.965Z,86.8540
2023-04-16T00:59:49.556Z,86.8811
2023-04-16T01:00:50.117Z,86.9042
2023-04-16T01:01:50.969Z,86.9253
2023-04-16T01:02:51.815Z,86.9652
2023-04-16T01:03:52.713Z,86.9978
2023-04-16T01:04:53.597Z,87.0251
2023-04-16T01:05:54.147Z,87.0536
2023-04-16T01:06:54.694Z,87.0723
2023-04-16T01:07:55.308Z,87.0957
2023-04-16T01:08:55.853Z,87.1274
2023-04-16T01:09:56.460Z,87.1478
2023-04-16T01:10:56.998Z,87.1596
2023-04-16T01:11:57.601Z,87.1865
2023-04-16T01:12:58.266Z,87.2119
2023-04-16T01:13:58.815Z,87.2394
2023-04-16T01:14:59.351Z,87.2590
2023-04-16T01:16:00.018Z,87.2793
2023-04-16T01:17:00.635Z,87.3019
2023-04-16T01:18:01.249Z,87.3295
2023-04-16T01:19:01.836Z,87.3530
2023-04-16T01:20:02.422Z,87.3817
2023-04-16T01:21:03.041Z,87.3998
2023-04-16T01:22:03.573Z,87.4171
2023-04-16T01:23:04.161Z,87.4314
2023-04-16T01:24:04.705Z,87.4428
2023-04-16T01:25:05.288Z,87.4522
2023-04-16T01:26:05.845Z,87.4655
2023-04-16T01:27:06.420Z,87.4720
2023-04-16T01:28:06.973Z,87.4825
2023-04-16T01:29:07.832Z,87.4891
2023-04-16T01:30:08.574Z,87.4927
2023-04-16T01:31:09.132Z,87.5062
2023-04-16T01:32:09.699Z,87.5529
2023-04-16T01:33:10.275Z,87.5811
2023-04-16T01:34:10.822Z,87.6044
2023-04-16T01:35:11.335Z,87.6330
2023-04-16T01:36:11.939Z,87.6548
2023-04-16T01:37:12.489Z,87.6806
2023-04-16T01:38:13.096Z,87.7186
2023-04-16T01:39:13.668Z,87.7394
2023-04-16T01:40:14.222Z,87.7586
2023-04-16T01:41:14.714Z,87.7877
2023-04-16T01:42:15.258Z,87.7948
2023-04-16T01:43:15.881Z,87.8074
2023-04-16T01:44:16.432Z,87.8214
2023-04-16T01:45:16.973Z,87.8397
2023-04-16T01:46:17.520Z,87.8572
2023-04-16T01:47:18.076Z,87.8713
2023-04-16T01:48:18.645Z,87.8756
2023-04-16T01:49:19.197Z,87.8881
2023-04-16T01:50:19.747Z,87.9009
2023-04-16T01:51:20.353Z,87.9116
2023-04-16T01:52:20.901Z,87.9244
2023-04-16T01:53:21.518Z,87.9392
2023-04-16T01:54:22.087Z,87.9596
2023-04-16T01:55:22.629Z,87.9647
2023-04-16T01:56:23.220Z,87.9791
2023-04-16T01:57:23.768Z,87.9885
2023-04-16T01:58:24.427Z,88.0048
2023-04-16T01:59:25.014Z,88.0176
2023-04-16T02:00:25.582Z,88.0243
2023-04-16T02:01:26.176Z,88.0364
2023-04-16T02:02:26.962Z,88.0450
2023-04-16T02:03:27.739Z,88.0551
2023-04-16T02:04:28.398Z,88.0666
2023-04-16T02:05:28.955Z,88.0717
2023-04-16T02:06:29.607Z,88.0803
2023-04-16T02:07:30.186Z,88.0902
2023-04-16T02:08:30.872Z,88.1058
2023-04-16T02:09:31.477Z,88.1158
2023-04-16T02:10:32.086Z,88.1257
2023-04-16T02:11:32.716Z,88.1279
2023-04-16T02:12:33.332Z,88.1414
2023-04-16T02:13:33.981Z,88.1570
2023-04-16T02:14:34.561Z,88.1671
2023-04-16T02:15:35.149Z,88.1727
2023-04-16T02:16:35.974Z,88.1787
2023-04-16T02:17:36.648Z,88.1904
2023-04-16T02:18:37.262Z,88.1981
2023-04-16T02:19:37.883Z,88.2027
2023-04-16T02:20:38.542Z,88.2043
2023-04-16T02:21:39.228Z,88.2038
2023-04-16T02:22:39.791Z,88.2121
2023-04-16T02:23:40.497Z,88.2164
2023-04-16T02:24:41.214Z,88.2187
2023-04-16T02:25:41.834Z,88.2200
2023-04-16T02:26:42.444Z,88.2209
2023-04-16T02:27:43.177Z,88.2214
2023-04-16T02:28:43.853Z,88.2168
2023-04-16T02:29:44.485Z,88.2071
2023-04-16T02:30:45.120Z,88.2059
2023-04-16T02:31:45.811Z,88.2076
2023-04-16T02:32:46.550Z,88.2044
2023-04-16T02:33:47.096Z,88.2018
2023-04-16T02:34:47.874Z,88.2008
2023-04-16T02:35:48.443Z,88.2050
2023-04-16T02:36:49.153Z,88.2098
2023-04-16T02:37:49.753Z,88.2141
2023-04-16T02:38:50.427Z,88.2194
2023-04-16T02:39:51.138Z,88.2193
2023-04-16T02:40:51.766Z,88.2192
2023-04-16T02:41:52.374Z,88.2278
2023-04-16T02:42:52.939Z,88.2353
2023-04-16T02:43:53.509Z,88.2378
2023-04-16T02:44:54.220Z,88.2424
2023-04-16T02:45:55.344Z,88.2367
2023-04-16T02:46:55.969Z,88.2329
2023-04-16T02:47:56.626Z,88.2259
2023-04-16T02:48:57.337Z,88.2311
2023-04-16T02:49:57.953Z,88.2253
2023-04-16T02:50:58.672Z,88.2217
2023-04-16T02:51:59.320Z,88.2131
2023-04-16T02:52:59.936Z,88.2111
2023-04-16T02:54:00.596Z,88.2008
2023-04-16T02:55:01.205Z,88.1924
2023-04-16T02:56:01.886Z,88.1893
2023-04-16T02:57:02.573Z,88.1821
2023-04-16T02:58:03.178Z,88.1688
2023-04-16T02:59:03.842Z,88.1619
2023-04-16T03:00:04.470Z,88.1498
2023-04-16T03:01:05.161Z,88.1380
2023-04-16T03:02:05.798Z,88.1337
2023-04-16T03:03:06.398Z,88.1311
2023-04-16T03:04:07.073Z,88.1332
2023-04-16T03:05:07.712Z,88.1359
2023-04-16T03:06:08.399Z,88.1288
2023-04-16T03:07:09.005Z,88.1306
2023-04-16T03:08:09.604Z,88.1299
2023-04-16T03:09:10.923Z,88.1321
2023-04-16T03:10:11.898Z,88.1396
2023-04-16T03:11:12.523Z,88.1467
2023-04-16T03:12:13.134Z,88.1506
2023-04-16T03:13:13.755Z,88.1559
2023-04-16T03:14:14.367Z,88.1593
2023-04-16T03:15:15.009Z,88.1603
2023-04-16T03:16:15.794Z,88.1618
2023-04-16T03:17:16.570Z,88.1592
2023-04-16T03:18:17.193Z,88.1578
2023-04-16T03:19:17.832Z,88.1579
2023-04-16T03:20:18.464Z,88.1579
2023-04-16T03:21:19.046Z,88.1606
2023-04-16T03:22:20.157Z,88.1646
2023-04-16T03:23:21.022Z,88.1777
2023-04-16T03:24:21.625Z,88.1840
2023-04-16T03:25:22.292Z,88.1836
2023-04-16T03:26:22.874Z,88.1906
2023-04-16T03:27:23.549Z,88.1933
2023-04-16T03:28:24.162Z,88.1958
2023-04-16T03:29:24.777Z,88.1991
2023-04-16T03:30:25.411Z,88.2032
2023-04-16T03:31:26.089Z,88.2114
2023-04-16T03:32:26.772Z,88.2226
2023-04-16T03:33:27.418Z,88.2381
2023-04-16T03:34:28.121Z,88.2433
2023-04-16T03:35:28.758Z,88.2493
2023-04-16T03:36:29.402Z,88.2523
2023-04-16T03:37:29.998Z,88.2558
2023-04-16T03:38:30.584Z,88.2621
2023-04-16T03:39:31.217Z,88.2793
2023-04-16T03:40:31.840Z,88.3043
2023-04-16T03:41:32.487Z,88.3192
2023-04-16T03:42:33.070Z,88.3344
2023-04-16T03:43:33.682Z,88.3537
2023-04-16T03:44:34.267Z,88.3682
2023-04-16T03:45:34.864Z,88.3762
2023-04-16T03:46:35.481Z,88.3859
2023-04-16T03:47:36.147Z,88.3967
2023-04-16T03:48:36.774Z,88.4115
2023-04-16T03:49:37.488Z,88.4304
2023-04-16T03:50:38.116Z,88.4491
2023-04-16T03:51:38.696Z,88.4688
2023-04-16T03:52:39.323Z,88.4836
2023-04-16T03:53:39.959Z,88.4955
2023-04-16T03:54:40.626Z,88.5044
2023-04-16T03:55:41.251Z,88.5133
2023-04-16T03:56:41.852Z,88.5245
2023-04-16T03:57:42.481Z,88.5353
2023-04-16T03:58:43.118Z,88.5510
2023-04-16T03:59:43.780Z,88.5613
2023-04-16T04:00:44.431Z,88.5732
2023-04-16T04:01:45.058Z,88.5824
2023-04-16T04:02:45.812Z,88.5887
2023-04-16T04:03:46.740Z,88.5948
2023-04-16T04:04:47.838Z,88.6028
2023-04-16T04:05:48.528Z,88.6153
2023-04-16T04:06:49.168Z,88.6272
2023-04-16T04:07:49.747Z,88.6387
2023-04-16T04:08:50.366Z,88.6529
2023-04-16T04:09:51.045Z,88.6623
2023-04-16T04:10:51.644Z,88.6654
2023-04-16T04:11:52.331Z,88.6733
2023-04-16T04:12:52.942Z,88.6777
2023-04-16T04:13:53.587Z,88.6890
2023-04-16T04:14:54.268Z,88.7035
2023-04-16T04:15:54.907Z,88.7199
2023-04-16T04:16:55.567Z,88.7356
2023-04-16T04:17:56.249Z,88.7473
2023-04-16T04:18:56.893Z,88.7566
2023-04-16T04:20:01.251Z,88.7648
2023-04-16T04:21:00.153Z,88.7788
2023-04-16T04:22:00.785Z,88.7878
2023-04-16T04:23:01.368Z,88.8010
2023-04-16T04:24:02.051Z,88.8095
2023-04-16T04:25:02.886Z,88.8154
2023-04-16T04:26:03.527Z,88.8255
2023-04-16T04:27:04.184Z,88.8303
2023-04-16T04:28:04.898Z,88.8355
2023-04-16T04:29:05.567Z,88.8434
2023-04-16T04:30:06.218Z,88.8508
2023-04-16T04:31:06.845Z,88.8587
2023-04-16T04:32:07.596Z,88.8629
2023-04-16T04:33:08.546Z,88.8724
2023-04-16T04:34:09.185Z,88.8803
2023-04-16T04:35:09.856Z,88.8936
2023-04-16T04:36:10.519Z,88.8995
2023-04-16T04:37:11.185Z,88.9082
2023-04-16T04:38:13.180Z,88.9196
2023-04-16T04:39:12.859Z,88.9323
2023-04-16T04:40:13.556Z,88.9414
2023-04-16T04:41:14.244Z,88.9489
2023-04-16T04:42:14.839Z,88.9630
2023-04-16T04:43:15.493Z,88.9673
2023-04-16T04:44:16.172Z,88.9789
2023-04-16T04:45:16.857Z,88.9835
2023-04-16T04:46:17.524Z,88.9865
2023-04-16T04:47:18.175Z,88.9936
2023-04-16T04:48:18.893Z,89.0032
2023-04-16T04:49:19.498Z,89.0111
2023-04-16T04:50:20.190Z,89.0204
2023-04-16T04:51:20.880Z,89.0265
2023-04-16T04:52:21.473Z,89.0356
2023-04-16T04:53:22.101Z,89.0428
2023-04-16T04:54:22.678Z,89.0515
2023-04-16T04:55:23.453Z,89.0579
2023-04-16T04:56:24.105Z,89.0596
2023-04-16T04:57:24.837Z,89.0687
2023-04-16T04:58:25.413Z,89.0789
2023-04-16T04:59:26.088Z,89.0875
2023-04-16T05:00:26.744Z,89.0919
2023-04-16T05:01:27.479Z,89.1016
2023-04-16T05:02:28.175Z,89.1078
2023-04-16T05:03:28.889Z,89.1181
2023-04-16T05:04:29.546Z,89.1310
2023-04-16T05:05:30.180Z,89.1374
2023-04-16T05:06:30.946Z,89.1444
2023-04-16T05:07:31.558Z,89.1518
2023-04-16T05:08:32.186Z,89.1636
2023-04-16T05:09:32.824Z,89.1684
2023-04-16T05:10:33.420Z,89.1781
2023-04-16T05:11:34.079Z,89.1819
2023-04-16T05:12:34.671Z,89.1930
2023-04-16T05:13:35.315Z,89.2000
2023-04-16T05:14:35.964Z,89.2091
2023-04-16T05:15:36.567Z,89.2100
2023-04-16T05:16:37.344Z,89.2156
2023-04-16T05:17:37.958Z,89.2176
2023-04-16T05:18:38.596Z,89.2274
2023-04-16T05:19:39.197Z,89.2440
2023-04-16T05:20:39.836Z,89.2512
2023-04-16T05:21:40.519Z,89.2569
2023-04-16T05:22:41.169Z,89.2675
2023-04-16T05:23:41.817Z,89.2786
2023-04-16T05:24:42.472Z,89.2881
2023-04-16T05:25:43.129Z,89.2939
2023-04-16T05:26:43.833Z,89.3002
2023-04-16T05:27:44.460Z,89.3060
2023-04-16T05:28:45.064Z,89.3078
2023-04-16T05:29:45.787Z,89.3185
2023-04-16T05:30:46.410Z,89.3266
2023-04-16T05:31:47.172Z,89.3314
2023-04-16T05:32:47.824Z,89.3366
2023-04-16T05:33:48.394Z,89.3432
2023-04-16T05:34:49.073Z,89.3459
2023-04-16T05:35:49.719Z,89.3496
2023-04-16T05:36:50.439Z,89.3548
2023-04-16T05:37:51.041Z,89.3572
2023-04-16T05:38:51.743Z,89.3588
2023-04-16T05:39:52.580Z,89.3618
2023-04-16T05:40:53.238Z,89.3599
2023-04-16T05:41:53.852Z,89.3655
2023-04-16T05:42:54.639Z,89.3696
2023-04-16T05:43:55.332Z,89.3764
2023-04-16T05:44:56.038Z,89.3842
2023-04-16T05:45:56.837Z,89.3928
2023-04-16T05:46:57.538Z,89.4000
2023-04-16T05:47:58.180Z,89.4020
2023-04-16T05:48:58.832Z,89.4086
2023-04-16T05:49:59.411Z,89.4072
2023-04-16T05:51:00.053Z,89.4079
2023-04-16T05:52:00.658Z,89.4150
2023-04-16T05:53:01.345Z,89.4159
2023-04-16T05:54:02.042Z,89.4303
2023-04-16T05:55:02.646Z,89.4330
2023-04-16T05:56:03.328Z,89.4400
2023-04-16T05:57:03.949Z,89.4487
2023-04-16T05:58:04.538Z,89.4547
2023-04-16T05:59:05.237Z,89.4592
2023-04-16T06:00:05.870Z,89.4673
2023-04-16T06:01:06.477Z,89.4746
2023-04-16T06:02:07.198Z,89.4798
2023-04-16T06:03:08.030Z,89.4824
2023-04-16T06:04:08.996Z,89.4899
2023-04-16T06:05:09.702Z,89.4947
2023-04-16T06:06:10.296Z,89.4998
2023-04-16T06:07:10.933Z,89.5067
2023-04-16T06:08:11.607Z,89.5167
2023-04-16T06:09:12.317Z,89.5212
2023-04-16T06:10:12.970Z,89.5255
2023-04-16T06:11:13.587Z,89.5346
2023-04-16T06:12:14.270Z,89.5414
2023-04-16T06:13:14.851Z,89.5513
2023-04-16T06:14:15.500Z,89.5512
2023-04-16T06:15:16.194Z,89.5483
2023-04-16T06:16:16.883Z,89.5556
2023-04-16T06:17:17.618Z,89.5491
2023-04-16T06:18:18.250Z,89.5509
2023-04-16T06:19:18.986Z,89.5505
2023-04-16T06:20:19.621Z,89.5480
2023-04-16T06:21:20.232Z,89.5516
2023-04-16T06:22:20.918Z,89.5517
2023-04-16T06:23:21.564Z,89.5570
2023-04-16T06:24:22.172Z,89.5584
2023-04-16T06:25:22.863Z,89.5589
2023-04-16T06:26:23.482Z,89.5570
2023-04-16T06:27:24.203Z,89.5495
2023-04-16T06:28:24.847Z,89.5501
2023-04-16T06:29:33.717Z,89.5406
2023-04-16T06:30:26.891Z,89.5447
2023-04-16T06:31:27.596Z,89.5325
2023-04-16T06:32:28.479Z,89.5228
2023-04-16T06:33:29.234Z,89.5116
2023-04-16T06:34:29.887Z,89.5055
2023-04-16T06:35:30.518Z,89.4967
2023-04-16T06:36:31.213Z,89.4929
2023-04-16T06:37:31.863Z,89.4888
2023-04-16T06:38:32.493Z,89.4836
2023-04-16T06:39:33.432Z,89.4846
2023-04-16T06:40:34.088Z,89.4897
2023-04-16T06:41:34.750Z,89.4930
2023-04-16T06:42:35.418Z,89.4920
2023-04-16T06:43:36.053Z,89.4946
2023-04-16T06:44:36.644Z,89.4971
2023-04-16T06:45:37.270Z,89.4983
2023-04-16T06:46:37.994Z,89.5073
2023-04-16T06:47:38.759Z,89.5091
2023-04-16T06:48:39.384Z,89.5097
2023-04-16T06:49:39.977Z,89.5135
2023-04-16T06:50:40.600Z,89.5241
2023-04-16T06:51:41.207Z,89.5307
2023-04-16T06:52:41.952Z,89.5385
2023-04-16T06:53:42.584Z,89.5489
2023-04-16T06:54:43.345Z,89.5570
2023-04-16T06:55:43.993Z,89.5675
2023-04-16T06:56:44.750Z,89.5732
2023-04-16T06:57:45.475Z,89.5802
2023-04-16T06:58:46.162Z,89.5897
2023-04-16T06:59:46.834Z,89.5934
2023-04-16T07:00:47.693Z,89.6015
2023-04-16T07:01:48.534Z,89.6049
2023-04-16T07:02:49.391Z,89.6111
2023-04-16T07:03:50.322Z,89.6160
2023-04-16T07:04:51.513Z,89.6179
2023-04-16T07:05:52.174Z,89.6188
2023-04-16T07:06:52.899Z,89.6205
2023-04-16T07:07:53.635Z,89.6254
2023-04-16T07:08:54.384Z,89.6334
2023-04-16T07:09:55.087Z,89.6388
2023-04-16T07:10:55.823Z,89.6380
2023-04-16T07:11:56.609Z,89.6358
2023-04-16T07:12:57.399Z,89.6279
2023-04-16T07:13:58.088Z,89.6240
2023-04-16T07:14:58.761Z,89.6261
2023-04-16T07:15:59.461Z,89.6267
2023-04-16T07:17:00.129Z,89.6301
2023-04-16T07:18:00.855Z,89.6286
2023-04-16T07:19:01.576Z,89.6284
2023-04-16T07:20:02.210Z,89.6200
2023-04-16T07:21:02.897Z,89.6170
2023-04-16T07:22:03.835Z,89.6065
2023-04-16T07:23:04.539Z,89.6034
2023-04-16T07:24:05.256Z,89.6019
2023-04-16T07:25:05.865Z,89.6000
2023-04-16T07:26:06.473Z,89.5907
2023-04-16T07:27:07.135Z,89.5888
2023-04-16T07:28:07.827Z,89.5857
2023-04-16T07:29:08.800Z,89.5878
2023-04-16T07:30:09.791Z,89.5813
2023-04-16T07:31:10.452Z,89.5751
2023-04-16T07:32:12.445Z,89.5655
2023-04-16T07:33:12.153Z,89.5646
2023-04-16T07:34:12.933Z,89.5610
2023-04-16T07:35:13.593Z,89.5592
2023-04-16T07:36:14.259Z,89.5504
2023-04-16T07:37:14.927Z,89.5486
2023-04-16T07:38:15.714Z,89.5411
2023-04-16T07:39:16.438Z,89.5418
2023-04-16T07:40:17.175Z,89.5352
2023-04-16T07:41:17.872Z,89.5299
2023-04-16T07:42:18.550Z,89.5206
2023-04-16T07:43:19.357Z,89.5088
2023-04-16T07:44:20.088Z,89.5050
2023-04-16T07:45:20.774Z,89.4966
2023-04-16T07:46:21.853Z,89.4927
2023-04-16T07:47:22.885Z,89.4939
2023-04-16T07:48:23.674Z,89.4841
2023-04-16T07:49:24.390Z,89.4803
2023-04-16T07:50:25.083Z,89.4718
2023-04-16T07:51:25.799Z,89.4707
2023-04-16T07:52:26.418Z,89.4589
2023-04-16T07:53:27.184Z,89.4534
2023-04-16T07:54:29.084Z,89.4491
2023-04-16T07:55:30.063Z,89.4436
2023-04-16T07:56:30.797Z,89.4431
2023-04-16T07:57:31.492Z,89.4344
2023-04-16T07:58:32.283Z,89.4290
2023-04-16T07:59:32.996Z,89.4114
2023-04-16T08:00:33.707Z,89.4056
2023-04-16T08:01:34.403Z,89.3964
2023-04-16T08:02:35.118Z,89.3939
2023-04-16T08:03:36.348Z,89.3922
2023-04-16T08:04:37.256Z,89.3935
2023-04-16T08:05:38.280Z,89.3931
2023-04-16T08:06:39.039Z,89.3961
2023-04-16T08:07:39.696Z,89.3958
2023-04-16T08:08:40.349Z,89.4017
2023-04-16T08:09:41.115Z,89.3989
2023-04-16T08:10:41.719Z,89.3842
2023-04-16T08:11:42.366Z,89.3682
2023-04-16T08:12:42.994Z,89.3511
2023-04-16T08:13:43.650Z,89.3447
2023-04-16T08:14:44.323Z,89.3399
2023-04-16T08:15:45.136Z,89.3344
2023-04-16T08:16:45.944Z,89.3368
2023-04-16T08:17:46.636Z,89.3362
2023-04-16T08:18:47.369Z,89.3408
2023-04-16T08:19:48.095Z,89.3445
2023-04-16T08:20:48.758Z,89.3475
2023-04-16T08:21:49.630Z,89.3471
2023-04-16T08:22:50.439Z,89.3456
2023-04-16T08:23:51.085Z,89.3416
2023-04-16T08:24:51.763Z,89.3425
2023-04-16T08:25:53.112Z,89.3400
2023-04-16T08:26:53.857Z,89.3346
2023-04-16T08:27:54.600Z,89.3295
2023-04-16T08:28:55.232Z,89.3264
2023-04-16T08:29:55.927Z,89.3223
2023-04-16T08:30:56.624Z,89.3270
2023-04-16T08:31:57.304Z,89.3278
2023-04-16T08:32:58.001Z,89.3300
2023-04-16T08:33:58.722Z,89.3367
2023-04-16T08:34:59.442Z,89.3389
2023-04-16T08:36:00.116Z,89.3305
2023-04-16T08:37:00.761Z,89.3273
2023-04-16T08:38:02.598Z,89.3270
2023-04-16T08:39:03.443Z,89.3308
2023-04-16T08:40:04.161Z,89.3193
2023-04-16T08:41:04.802Z,89.3127
2023-04-16T08:42:05.439Z,89.3064
2023-04-16T08:43:06.055Z,89.3026
2023-04-16T08:44:06.838Z,89.2972
2023-04-16T08:45:07.444Z,89.2917
2023-04-16T08:46:08.160Z,89.2810
2023-04-16T08:47:08.882Z,89.2767
2023-04-16T08:48:09.807Z,89.2746
2023-04-16T08:49:10.700Z,89.2756
2023-04-16T08:50:11.681Z,89.2718
2023-04-16T08:51:12.336Z,89.2635
2023-04-16T08:52:13.047Z,89.2533
2023-04-16T08:53:13.699Z,89.2472
2023-04-16T08:54:14.378Z,89.2427
2023-04-16T08:55:15.090Z,89.2220
2023-04-16T08:56:15.813Z,89.2050
2023-04-16T08:57:16.484Z,89.1998
2023-04-16T08:58:17.145Z,89.1936
2023-04-16T08:59:17.798Z,89.1745
2023-04-16T09:00:18.497Z,89.1572
2023-04-16T09:01:19.347Z,89.1377
2023-04-16T09:02:20.131Z,89.1178
2023-04-16T09:03:21.197Z,89.1004
2023-04-16T09:04:22.018Z,89.0879
2023-04-16T09:05:22.789Z,89.0678
2023-04-16T09:06:23.443Z,89.0557
2023-04-16T09:07:24.266Z,89.0439
2023-04-16T09:08:24.967Z,89.0287
2023-04-16T09:09:25.654Z,89.0243
2023-04-16T09:10:26.576Z,89.0168
2023-04-16T09:11:27.194Z,89.0140
2023-04-16T09:12:27.877Z,89.0093
2023-04-16T09:13:28.515Z,89.0003
2023-04-16T09:14:29.317Z,88.9892
2023-04-16T09:15:29.970Z,88.9746
2023-04-16T09:16:30.784Z,88.9529
2023-04-16T09:17:31.450Z,88.9461
2023-04-16T09:18:32.063Z,88.9350
2023-04-16T09:19:32.728Z,88.9276
2023-04-16T09:20:33.351Z,88.9308
2023-04-16T09:21:33.987Z,88.9287
2023-04-16T09:22:34.641Z,88.9194
2023-04-16T09:23:35.330Z,88.9174
2023-04-16T09:24:35.941Z,88.9175
2023-04-16T09:25:36.926Z,88.9170
2023-04-16T09:26:37.562Z,88.9207
2023-04-16T09:27:38.256Z,88.9205
2023-04-16T09:28:38.904Z,88.9217
2023-04-16T09:29:39.600Z,88.9166
2023-04-16T09:30:40.313Z,88.9033
2023-04-16T09:31:40.994Z,88.8858
2023-04-16T09:32:41.798Z,88.8741
2023-04-16T09:33:42.450Z,88.8705
2023-04-16T09:34:43.236Z,88.8715
2023-04-16T09:35:43.956Z,88.8723
2023-04-16T09:36:44.628Z,88.8766
2023-04-16T09:37:45.284Z,88.8853
2023-04-16T09:38:45.986Z,88.8876
2023-04-16T09:39:46.646Z,88.8790
2023-04-16T09:40:47.401Z,88.8566
2023-04-16T09:41:48.224Z,88.8403
2023-04-16T09:42:49.222Z,88.8278
2023-04-16T09:43:49.823Z,88.8209
2023-04-16T09:44:50.454Z,88.8145
2023-04-16T09:45:51.260Z,88.8109
2023-04-16T09:46:51.965Z,88.8098
2023-04-16T09:47:52.739Z,88.8046
2023-04-16T09:48:53.414Z,88.8051
2023-04-16T09:49:54.923Z,88.7963
2023-04-16T09:50:55.580Z,88.7810
2023-04-16T09:51:56.275Z,88.7720
2023-04-16T09:52:56.926Z,88.7712
2023-04-16T09:53:57.614Z,88.7667
2023-04-16T09:54:58.278Z,88.7687
2023-04-16T09:55:59.062Z,88.7722
2023-04-16T09:56:59.795Z,88.7714
2023-04-16T09:58:00.503Z,88.7628
2023-04-16T09:59:01.177Z,88.7559
2023-04-16T10:00:01.816Z,88.7381
2023-04-16T10:01:02.592Z,88.7233
2023-04-16T10:02:14.600Z,88.7075
2023-04-16T10:03:04.794Z,88.6947
2023-04-16T10:04:05.655Z,88.6726
2023-04-16T10:05:06.499Z,88.6549
2023-04-16T10:06:07.171Z,88.6433
2023-04-16T10:07:07.858Z,88.6306
2023-04-16T10:08:08.546Z,88.6232
2023-04-16T10:09:09.452Z,88.6243
2023-04-16T10:10:10.510Z,88.6295
2023-04-16T10:11:11.206Z,88.6300
2023-04-16T10:12:12.063Z,88.6287
2023-04-16T10:13:12.863Z,88.6259
2023-04-16T10:14:13.617Z,88.6239
2023-04-16T10:15:14.387Z,88.6284
2023-04-16T10:16:15.181Z,88.6327
2023-04-16T10:17:15.846Z,88.6351
2023-04-16T10:18:16.521Z,88.6385
2023-04-16T10:19:17.121Z,88.6444
2023-04-16T10:20:17.792Z,88.6489
2023-04-16T10:21:18.538Z,88.6510
2023-04-16T10:22:19.168Z,88.6489
2023-04-16T10:23:19.743Z,88.6436
2023-04-16T10:24:20.359Z,88.6342
2023-04-16T10:25:21.016Z,88.6215
2023-04-16T10:26:21.677Z,88.6082
2023-04-16T10:27:22.326Z,88.6044
2023-04-16T10:28:23.114Z,88.6094
2023-04-16T10:29:23.797Z,88.6060
2023-04-16T10:30:24.519Z,88.6140
2023-04-16T10:31:25.233Z,88.6177
2023-04-16T10:32:26.180Z,88.6316
2023-04-16T10:33:26.894Z,88.6334
2023-04-16T10:34:27.545Z,88.6318
2023-04-16T10:35:28.225Z,88.6340
2023-04-16T10:36:28.999Z,88.6404
2023-04-16T10:37:29.625Z,88.6375
2023-04-16T10:38:30.339Z,88.6326
2023-04-16T10:39:30.992Z,88.6430
2023-04-16T10:40:31.640Z,88.6495
2023-04-16T10:41:32.363Z,88.6604
2023-04-16T10:42:33.063Z,88.6674
2023-04-16T10:43:33.753Z,88.6812
2023-04-16T10:44:34.370Z,88.6963
2023-04-16T10:45:35.233Z,88.7082
2023-04-16T10:46:35.992Z,88.7199
2023-04-16T10:47:36.664Z,88.7263
2023-04-16T10:48:48.660Z,88.7352
2023-04-16T10:49:38.712Z,88.7521
2023-04-16T10:50:39.587Z,88.7527
2023-04-16T10:51:40.370Z,88.7569
2023-04-16T10:52:41.074Z,88.7608
2023-04-16T10:53:41.732Z,88.7541
2023-04-16T10:54:42.398Z,88.7430
2023-04-16T10:55:42.998Z,88.7239
2023-04-16T10:56:43.689Z,88.7004
2023-04-16T10:57:44.378Z,88.6639
2023-04-16T10:58:45.019Z,88.6131
2023-04-16T10:59:45.663Z,88.5346
2023-04-16T11:00:46.340Z,88.4777
2023-04-16T11:01:47.041Z,88.4337
2023-04-16T11:02:47.833Z,88.3994
2023-04-16T11:03:48.617Z,88.3615
2023-04-16T11:04:50.007Z,88.3075
2023-04-16T11:05:50.842Z,88.2505
2023-04-16T11:06:51.532Z,88.2014
2023-04-16T11:07:52.506Z,88.1386
2023-04-16T11:08:54.915Z,88.0228
2023-04-16T11:09:53.814Z,87.9148
2023-04-16T11:10:54.487Z,87.8436
2023-04-16T11:11:55.181Z,87.7879
2023-04-16T11:12:55.857Z,87.7534
2023-04-16T11:13:56.530Z,87.7289
2023-04-16T11:14:57.198Z,87.7056
2023-04-16T11:15:57.861Z,87.6823
2023-04-16T11:16:58.499Z,87.6632
2023-04-16T11:17:59.176Z,87.6510
2023-04-16T11:18:59.810Z,87.6214
2023-04-16T11:20:00.545Z,87.5916
2023-04-16T11:21:01.275Z,87.5743
2023-04-16T11:22:01.898Z,87.5627
2023-04-16T11:23:02.579Z,87.5576
2023-04-16T11:24:03.133Z,87.5584
2023-04-16T11:25:03.778Z,87.5479
2023-04-16T11:26:04.426Z,87.4423
2023-04-16T11:27:05.176Z,87.3482
2023-04-16T11:28:05.828Z,87.2547
2023-04-16T11:29:06.516Z,87.1955
2023-04-16T11:30:07.174Z,87.1127
2023-04-16T11:31:07.861Z,87.0349
2023-04-16T11:32:08.545Z,86.9793
2023-04-16T11:33:09.245Z,86.9206
2023-04-16T11:34:09.900Z,86.8681
2023-04-16T11:35:10.547Z,86.8324
2023-04-16T11:36:11.139Z,86.8126
2023-04-16T11:37:11.885Z,86.7991
2023-04-16T11:38:12.555Z,86.7976
2023-04-16T11:39:13.229Z,86.8078
2023-04-16T11:40:14.020Z,86.8093
2023-04-16T11:41:14.680Z,86.7582
2023-04-16T11:42:15.436Z,86.7100
2023-04-16T11:43:16.179Z,86.6773
2023-04-16T11:44:16.829Z,86.6571
2023-04-16T11:45:17.902Z,86.6614
2023-04-16T11:46:27.398Z,86.6665
2023-04-16T11:47:20.271Z,86.6734
2023-04-16T11:48:21.031Z,86.6689
2023-04-16T11:49:21.740Z,86.6643
2023-04-16T11:50:22.757Z,86.6683
2023-04-16T11:51:23.810Z,86.6774
2023-04-16T11:52:24.991Z,86.6994
2023-04-16T11:53:25.752Z,86.7383
2023-04-16T11:54:26.455Z,86.7704
2023-04-16T11:55:27.178Z,86.8150
2023-04-16T11:56:27.850Z,86.8489
2023-04-16T11:57:28.549Z,86.8774
2023-04-16T11:58:29.263Z,86.9165
2023-04-16T11:59:29.970Z,86.9575
2023-04-16T12:00:30.665Z,87.0032
2023-04-16T12:01:31.408Z,87.0454
2023-04-16T12:02:32.313Z,87.0975
2023-04-16T12:03:33.348Z,87.1485
2023-04-16T12:04:34.204Z,87.1976
2023-04-16T12:05:34.954Z,87.2508
2023-04-16T12:06:35.695Z,87.3089
2023-04-16T12:07:36.494Z,87.3643
2023-04-16T12:08:37.272Z,87.4152
2023-04-16T12:09:40.569Z,87.4555
2023-04-16T12:10:39.048Z,87.4983
2023-04-16T12:11:39.747Z,87.5295
2023-04-16T12:12:40.480Z,87.5613
2023-04-16T12:13:41.218Z,87.5814